createdAt,value
2023-05-25T00:01:00.417Z,51.84
2023-05-25T00:03:31.333Z,51.87
2023-05-25T00:06:01.558Z,51.79
2023-05-25T00:08:31.093Z,51.85
2023-05-25T00:10:58.926Z,51.89
2023-05-25T00:13:26.675Z,51.95
2023-05-25T00:15:54.540Z,52.13
2023-05-25T00:18:22.306Z,52.21
2023-05-25T00:20:50.237Z,51.98
2023-05-25T00:23:18.107Z,52.29
2023-05-25T00:25:47.384Z,52.33
2023-05-25T00:28:15.285Z,52.32
2023-05-25T00:30:43.087Z,52.21
2023-05-25T00:33:11.249Z,52.04
2023-05-25T00:35:39.018Z,52.39
2023-05-25T00:38:06.769Z,52.43
2023-05-25T00:40:36.169Z,52.25
2023-05-25T00:43:05.357Z,52.58
2023-05-25T00:45:33.036Z,52.50
2023-05-25T00:48:01.636Z,52.52
2023-05-25T00:50:38.960Z,52.02
2023-05-25T00:53:07.136Z,52.12
2023-05-25T00:55:38.318Z,52.36
2023-05-25T00:58:08.980Z,52.27
2023-05-25T01:00:38.829Z,52.45
2023-05-25T01:03:13.034Z,52.33
2023-05-25T01:05:45.064Z,52.29
2023-05-25T01:08:14.927Z,52.12
2023-05-25T01:10:44.115Z,52.37
2023-05-25T01:13:14.477Z,52.20
2023-05-25T01:15:42.599Z,52.37
2023-05-25T01:18:15.006Z,52.24
2023-05-25T01:20:55.088Z,52.24
2023-05-25T01:23:28.389Z,52.12
2023-05-25T01:26:02.709Z,52.29
2023-05-25T01:28:33.721Z,52.21
2023-05-25T01:31:02.406Z,52.23
2023-05-25T01:33:31.730Z,52.53
2023-05-25T01:36:02.105Z,52.09
2023-05-25T01:38:29.928Z,52.50
2023-05-25T01:40:57.708Z,52.11
2023-05-25T01:43:26.201Z,52.43
2023-05-25T01:45:59.233Z,52.22
2023-05-25T01:48:34.578Z,52.22
2023-05-25T01:51:08.778Z,52.55
2023-05-25T01:53:38.705Z,52.13
2023-05-25T01:56:09.911Z,52.20
2023-05-25T01:58:41.640Z,52.29
2023-05-25T02:01:10.443Z,52.31
2023-05-25T02:03:39.082Z,52.20
2023-05-25T02:06:08.732Z,52.33
2023-05-25T02:08:36.539Z,52.11
2023-05-25T02:11:04.484Z,52.37
2023-05-25T02:13:32.314Z,52.62
2023-05-25T02:16:00.131Z,52.67
2023-05-25T02:18:27.941Z,52.45
2023-05-25T02:20:55.869Z,52.24
2023-05-25T02:23:24.984Z,52.31
2023-05-25T02:25:52.736Z,52.55
2023-05-25T02:28:20.721Z,52.82
2023-05-25T02:30:48.499Z,52.65
2023-05-25T02:33:16.231Z,52.55
2023-05-25T02:35:44.463Z,52.30
2023-05-25T02:38:12.371Z,52.21
2023-05-25T02:40:41.604Z,52.56
2023-05-25T02:43:09.855Z,52.66
2023-05-25T02:45:37.637Z,52.50
2023-05-25T02:48:05.503Z,52.81
2023-05-25T02:50:33.328Z,52.63
2023-05-25T02:53:01.520Z,52.61
2023-05-25T02:55:29.999Z,52.64
2023-05-25T02:58:00.007Z,52.45
2023-05-25T03:00:28.249Z,52.80
2023-05-25T03:02:56.009Z,52.57
2023-05-25T03:05:23.788Z,52.42
2023-05-25T03:07:51.661Z,52.80
2023-05-25T03:10:19.452Z,52.66
2023-05-25T03:12:47.230Z,52.53
2023-05-25T03:15:17.076Z,52.68
2023-05-25T03:17:44.887Z,52.91
2023-05-25T03:20:15.608Z,53.14
2023-05-25T03:22:44.037Z,52.82
2023-05-25T03:25:13.205Z,53.11
2023-05-25T03:27:41.205Z,52.78
2023-05-25T03:30:10.175Z,52.37
2023-05-25T03:32:39.328Z,52.60
2023-05-25T03:35:07.980Z,52.71
2023-05-25T03:37:35.732Z,52.62
2023-05-25T03:40:04.725Z,52.81
2023-05-25T03:42:32.488Z,52.58
2023-05-25T03:45:00.219Z,52.71
2023-05-25T03:47:27.955Z,52.51
2023-05-25T03:49:57.163Z,52.92
2023-05-25T03:52:24.920Z,52.24
2023-05-25T03:54:52.742Z,52.49
2023-05-25T03:57:20.483Z,52.45
2023-05-25T03:59:48.225Z,52.68
2023-05-25T04:02:16.012Z,52.76
2023-05-25T04:04:44.067Z,52.74
2023-05-25T04:07:13.715Z,52.64
2023-05-25T04:09:41.484Z,52.80
2023-05-25T04:12:09.528Z,52.95
2023-05-25T04:14:37.275Z,53.13
2023-05-25T04:17:05.337Z,53.00
2023-05-25T04:19:33.737Z,53.00
2023-05-25T04:22:01.490Z,52.78
2023-05-25T04:24:30.635Z,53.00
2023-05-25T04:26:58.433Z,52.86
2023-05-25T04:29:26.987Z,53.01
2023-05-25T04:31:54.915Z,53.42
2023-05-25T04:34:23.338Z,53.58
2023-05-25T04:36:51.059Z,53.01
2023-05-25T04:39:18.828Z,53.45
2023-05-25T04:41:48.346Z,53.57
2023-05-25T04:44:16.139Z,53.63
2023-05-25T04:46:44.693Z,53.58
2023-05-25T04:49:14.168Z,53.38
2023-05-25T04:51:41.960Z,53.15
2023-05-25T04:54:09.751Z,53.47
2023-05-25T04:56:37.471Z,53.73
2023-05-25T04:59:07.166Z,53.41
2023-05-25T05:01:40.600Z,53.87
2023-05-25T05:04:08.751Z,53.58
2023-05-25T05:06:37.064Z,53.34
2023-05-25T05:09:04.982Z,53.48
2023-05-25T05:11:32.708Z,53.56
2023-05-25T05:14:00.482Z,53.53
2023-05-25T05:16:33.754Z,53.63
2023-05-25T05:19:02.096Z,53.53
2023-05-25T05:21:29.962Z,53.31
2023-05-25T05:23:57.699Z,53.10
2023-05-25T05:26:25.478Z,53.11
2023-05-25T05:28:53.413Z,53.32
2023-05-25T05:31:23.108Z,53.08
2023-05-25T05:33:52.309Z,53.58
2023-05-25T05:36:20.109Z,53.69
2023-05-25T05:38:47.880Z,53.69
2023-05-25T05:41:15.741Z,54.11
2023-05-25T05:43:45.892Z,54.03
2023-05-25T05:46:14.021Z,54.31
2023-05-25T05:48:42.388Z,54.39
2023-05-25T05:51:11.612Z,54.11
2023-05-25T05:53:39.419Z,53.92
2023-05-25T05:56:07.574Z,53.99
2023-05-25T05:58:35.460Z,54.01
2023-05-25T06:01:03.387Z,54.10
2023-05-25T06:03:31.213Z,53.90
2023-05-25T06:05:59.045Z,53.97
2023-05-25T06:08:28.799Z,54.10
2023-05-25T06:10:57.049Z,54.05
2023-05-25T06:13:24.798Z,54.13
2023-05-25T06:15:52.600Z,55.12
2023-05-25T06:18:20.316Z,55.32
2023-05-25T06:20:48.102Z,55.37
2023-05-25T06:23:15.896Z,54.97
2023-05-25T06:25:45.267Z,55.08
2023-05-25T06:28:13.197Z,55.30
2023-05-25T06:30:40.942Z,54.51
2023-05-25T06:33:09.616Z,55.10
2023-05-25T06:35:37.432Z,55.05
2023-05-25T06:38:05.189Z,54.61
2023-05-25T06:40:32.970Z,54.89
2023-05-25T06:43:02.080Z,55.00
2023-05-25T06:45:29.924Z,54.90
2023-05-25T06:47:57.761Z,54.71
2023-05-25T06:50:25.821Z,54.80
2023-05-25T06:52:53.575Z,54.63
2023-05-25T06:55:21.288Z,54.61
2023-05-25T06:57:49.035Z,54.77
2023-05-25T07:00:19.759Z,54.31
2023-05-25T07:02:47.570Z,54.71
2023-05-25T07:05:15.609Z,54.73
2023-05-25T07:07:43.439Z,54.31
2023-05-25T07:10:11.474Z,54.61
2023-05-25T07:12:39.315Z,54.86
2023-05-25T07:15:08.272Z,54.76
2023-05-25T07:17:37.546Z,54.65
2023-05-25T07:20:06.530Z,54.58
2023-05-25T07:22:34.371Z,54.73
2023-05-25T07:25:02.100Z,54.38
2023-05-25T07:27:31.632Z,54.70
2023-05-25T07:29:59.460Z,54.61
2023-05-25T07:32:27.261Z,54.35
2023-05-25T07:34:56.377Z,54.51
2023-05-25T07:37:24.200Z,54.47
2023-05-25T07:39:51.992Z,54.72
2023-05-25T07:42:21.823Z,54.74
2023-05-25T07:44:49.915Z,54.64
2023-05-25T07:47:17.895Z,54.33
2023-05-25T07:49:46.124Z,54.49
2023-05-25T07:52:15.276Z,54.77
2023-05-25T07:54:43.033Z,54.74
2023-05-25T07:57:10.791Z,54.67
2023-05-25T07:59:38.595Z,54.63
2023-05-25T08:02:06.707Z,54.51
2023-05-25T08:04:35.621Z,54.52
2023-05-25T08:07:03.786Z,54.70
2023-05-25T08:09:32.921Z,54.70
2023-05-25T08:12:24.031Z,54.50
2023-05-25T08:14:49.561Z,54.56
2023-05-25T08:17:17.508Z,54.41
2023-05-25T08:19:45.262Z,54.45
2023-05-25T08:22:13.041Z,54.34
2023-05-25T08:24:42.369Z,54.42
2023-05-25T08:27:10.140Z,54.42
2023-05-25T08:29:37.921Z,54.20
2023-05-25T08:32:05.997Z,54.42
2023-05-25T08:34:34.144Z,54.44
2023-05-25T08:37:01.953Z,54.23
2023-05-25T08:39:29.687Z,54.20
2023-05-25T08:41:58.885Z,54.54
2023-05-25T08:44:29.166Z,54.40
2023-05-25T08:46:58.127Z,54.58
2023-05-25T08:49:27.975Z,54.46
2023-05-25T08:51:56.690Z,54.56
2023-05-25T08:54:27.430Z,54.45
2023-05-25T08:57:02.601Z,54.46
2023-05-25T08:59:38.855Z,54.71
2023-05-25T09:02:26.976Z,54.71
2023-05-25T09:04:55.928Z,54.88
2023-05-25T09:07:24.635Z,54.60
2023-05-25T09:09:53.163Z,54.75
2023-05-25T09:12:23.633Z,54.84
2023-05-25T09:14:52.179Z,54.45
2023-05-25T09:17:21.149Z,54.64
2023-05-25T09:19:48.974Z,54.52
2023-05-25T09:22:17.169Z,54.15
2023-05-25T09:24:45.953Z,54.31
2023-05-25T09:27:17.403Z,54.45
2023-05-25T09:29:48.207Z,54.32
2023-05-25T09:32:16.985Z,54.18
2023-05-25T09:34:45.059Z,54.25
2023-05-25T09:37:14.376Z,54.19
2023-05-25T09:39:43.269Z,54.27
2023-05-25T09:42:11.497Z,54.37
2023-05-25T09:44:39.570Z,54.31
2023-05-25T09:47:11.160Z,54.36
2023-05-25T09:49:39.461Z,54.16
2023-05-25T09:52:07.757Z,53.58
2023-05-25T09:54:36.673Z,54.03
2023-05-25T09:57:05.262Z,54.04
2023-05-25T09:59:33.288Z,53.93
2023-05-25T10:02:01.442Z,54.00
2023-05-25T10:04:30.629Z,53.96
2023-05-25T10:06:59.262Z,53.87
2023-05-25T10:09:30.043Z,53.98
2023-05-25T10:11:58.655Z,53.79
2023-05-25T10:14:29.962Z,53.83
2023-05-25T10:17:00.262Z,53.67
2023-05-25T10:19:34.339Z,53.89
2023-05-25T10:22:07.754Z,53.49
2023-05-25T10:24:44.080Z,53.47
2023-05-25T10:27:26.371Z,53.77
2023-05-25T10:29:57.418Z,53.77
2023-05-25T10:32:25.884Z,53.50
2023-05-25T10:34:56.611Z,53.55
2023-05-25T10:37:24.637Z,53.51
2023-05-25T10:39:53.259Z,53.59
2023-05-25T10:42:21.587Z,53.49
2023-05-25T10:44:50.649Z,53.49
2023-05-25T10:47:19.263Z,53.28
2023-05-25T10:49:56.516Z,53.52
2023-05-25T10:52:28.722Z,53.20
2023-05-25T10:54:57.891Z,52.61
2023-05-25T10:57:26.522Z,52.82
2023-05-25T11:00:00.068Z,52.84
2023-05-25T11:02:29.083Z,52.98
2023-05-25T11:05:32.897Z,52.86
2023-05-25T11:08:02.168Z,53.19
2023-05-25T11:10:54.835Z,52.90
2023-05-25T11:13:24.264Z,53.09
2023-05-25T11:16:24.668Z,53.03
2023-05-25T11:18:54.985Z,52.87
2023-05-25T11:21:43.450Z,52.64
2023-05-25T11:24:18.828Z,52.63
2023-05-25T11:26:58.282Z,52.74
2023-05-25T11:29:27.355Z,52.80
2023-05-25T11:31:56.164Z,52.85
2023-05-25T11:34:25.852Z,52.85
2023-05-25T11:37:02.023Z,52.61
2023-05-25T11:39:30.248Z,52.36
2023-05-25T11:42:03.955Z,52.35
2023-05-25T11:44:33.692Z,52.70
2023-05-25T11:47:05.852Z,52.86
2023-05-25T11:49:33.699Z,52.44
2023-05-25T11:52:07.367Z,52.52
2023-05-25T11:54:35.718Z,52.18
2023-05-25T11:57:03.793Z,52.34
2023-05-25T11:59:32.488Z,52.39
2023-05-25T12:02:01.673Z,52.38
2023-05-25T12:04:30.122Z,52.83
2023-05-25T12:07:06.142Z,52.65
2023-05-25T12:09:34.040Z,52.77
2023-05-25T12:12:04.568Z,52.82
2023-05-25T12:14:36.031Z,52.48
2023-05-25T12:17:04.012Z,52.72
2023-05-25T12:19:32.008Z,52.85
2023-05-25T12:21:59.875Z,52.92
2023-05-25T12:24:29.088Z,52.93
2023-05-25T12:26:57.468Z,52.54
2023-05-25T12:29:26.186Z,52.16
2023-05-25T12:31:54.015Z,51.91
2023-05-25T12:34:22.245Z,51.96
2023-05-25T12:36:51.780Z,52.30
2023-05-25T12:39:38.854Z,51.98
2023-05-25T12:42:07.122Z,51.67
2023-05-25T12:44:36.268Z,51.70
2023-05-25T12:47:14.418Z,51.81
2023-05-25T12:49:44.401Z,51.39
2023-05-25T12:52:13.122Z,51.37
2023-05-25T12:54:44.902Z,51.50
2023-05-25T12:57:15.002Z,51.66
2023-05-25T12:59:44.520Z,51.51
2023-05-25T13:02:13.285Z,51.48
2023-05-25T13:04:42.899Z,51.05
2023-05-25T13:07:11.017Z,51.55
2023-05-25T13:09:39.260Z,51.30
2023-05-25T13:12:09.446Z,51.15
2023-05-25T13:14:37.256Z,50.91
2023-05-25T13:17:05.977Z,51.21
2023-05-25T13:19:33.744Z,51.19
2023-05-25T13:22:01.846Z,50.85
2023-05-25T13:24:29.612Z,50.76
2023-05-25T13:26:57.418Z,50.76
2023-05-25T13:29:26.572Z,50.57
2023-05-25T13:31:54.328Z,50.88
2023-05-25T13:34:22.074Z,50.58
2023-05-25T13:36:49.908Z,50.17
2023-05-25T13:39:17.626Z,50.22
2023-05-25T13:41:46.301Z,50.26
2023-05-25T13:44:17.286Z,50.20
2023-05-25T13:46:46.911Z,50.33
2023-05-25T13:49:16.240Z,50.60
2023-05-25T13:51:44.067Z,50.28
2023-05-25T13:54:12.858Z,49.83
2023-05-25T13:56:42.429Z,49.78
2023-05-25T13:59:10.489Z,49.83
2023-05-25T14:01:38.306Z,49.63
2023-05-25T14:04:07.574Z,49.81
2023-05-25T14:06:35.930Z,49.67
2023-05-25T14:09:03.771Z,50.25
2023-05-25T14:11:31.507Z,50.40
2023-05-25T14:13:59.276Z,50.21
2023-05-25T14:16:27.280Z,50.28
2023-05-25T14:18:56.439Z,49.80
2023-05-25T14:21:25.751Z,49.31
2023-05-25T14:23:53.557Z,48.92
2023-05-25T14:26:22.661Z,49.11
2023-05-25T14:28:50.588Z,49.27
2023-05-25T14:31:18.429Z,49.30
2023-05-25T14:33:46.869Z,49.53
2023-05-25T14:36:14.714Z,49.34
2023-05-25T14:38:43.871Z,49.15
2023-05-25T14:41:11.641Z,48.65
2023-05-25T14:43:39.408Z,48.78
2023-05-25T14:46:07.444Z,48.96
2023-05-25T14:48:36.278Z,49.22
2023-05-25T14:51:04.270Z,49.15
2023-05-25T14:53:32.453Z,48.84
2023-05-25T14:56:02.674Z,49.27
2023-05-25T14:58:32.248Z,49.55
2023-05-25T15:01:00.200Z,49.40
2023-05-25T15:03:28.191Z,48.57
2023-05-25T15:05:56.350Z,48.84
2023-05-25T15:08:24.113Z,47.13
2023-05-25T15:10:51.888Z,47.86
2023-05-25T15:13:22.648Z,47.77
2023-05-25T15:15:52.100Z,47.71
2023-05-25T15:18:19.920Z,47.88
2023-05-25T15:20:47.890Z,48.06
2023-05-25T15:23:15.695Z,47.80
2023-05-25T15:25:43.728Z,47.89
2023-05-25T15:28:11.595Z,47.63
2023-05-25T15:30:40.713Z,47.84
2023-05-25T15:33:08.511Z,47.37
2023-05-25T15:35:36.755Z,47.47
2023-05-25T15:38:04.517Z,47.44
2023-05-25T15:40:32.258Z,47.89
2023-05-25T15:43:00.041Z,48.41
2023-05-25T15:45:27.865Z,48.35
2023-05-25T15:47:57.068Z,48.26
2023-05-25T15:50:24.917Z,47.69
2023-05-25T15:52:52.718Z,47.41
2023-05-25T15:55:20.665Z,47.43
2023-05-25T15:57:48.465Z,47.45
2023-05-25T16:00:17.431Z,47.42
2023-05-25T16:02:45.332Z,47.08
2023-05-25T16:05:14.507Z,47.41
2023-05-25T16:07:42.284Z,47.67
2023-05-25T16:10:11.086Z,47.20
2023-05-25T16:12:38.832Z,47.37
2023-05-25T16:15:07.440Z,47.03
2023-05-25T16:17:35.259Z,47.19
2023-05-25T16:20:03.127Z,46.95
2023-05-25T16:22:32.277Z,47.16
2023-05-25T16:25:00.084Z,47.09
2023-05-25T16:27:27.887Z,47.56
2023-05-25T16:29:55.651Z,47.44
2023-05-25T16:32:23.552Z,47.14
2023-05-25T16:34:51.470Z,47.03
2023-05-25T16:37:19.237Z,46.83
2023-05-25T16:39:48.410Z,47.05
2023-05-25T16:42:16.332Z,46.83
2023-05-25T16:44:44.103Z,47.17
2023-05-25T16:47:11.961Z,46.89
2023-05-25T16:49:39.755Z,47.14
2023-05-25T16:52:07.539Z,47.62
2023-05-25T16:54:35.315Z,47.99
2023-05-25T16:57:04.613Z,48.25
2023-05-25T16:59:32.457Z,48.12
2023-05-25T17:02:00.602Z,48.10
2023-05-25T17:04:28.505Z,47.78
2023-05-25T17:06:56.622Z,47.56
2023-05-25T17:09:25.241Z,47.29
2023-05-25T17:11:53.936Z,47.30
2023-05-25T17:14:23.245Z,47.09
2023-05-25T17:16:50.986Z,47.17
2023-05-25T17:19:18.847Z,46.94
2023-05-25T17:21:46.662Z,46.86
2023-05-25T17:24:14.509Z,46.50
2023-05-25T17:26:42.290Z,46.69
2023-05-25T17:29:10.067Z,46.49
2023-05-25T17:31:39.269Z,46.35
2023-05-25T17:34:07.041Z,46.50
2023-05-25T17:36:34.847Z,46.69
2023-05-25T17:39:02.659Z,46.73
2023-05-25T17:41:30.825Z,46.51
2023-05-25T17:43:58.569Z,46.48
2023-05-25T17:46:26.491Z,46.55
2023-05-25T17:48:55.912Z,46.55
2023-05-25T17:51:23.750Z,46.37
2023-05-25T17:53:51.476Z,46.90
2023-05-25T17:56:19.223Z,46.50
2023-05-25T17:58:47.661Z,46.57
2023-05-25T18:01:16.016Z,46.38
2023-05-25T18:03:44.153Z,46.05
2023-05-25T18:06:13.382Z,47.11
2023-05-25T18:08:41.150Z,46.51
2023-05-25T18:11:08.885Z,46.74
2023-05-25T18:13:36.692Z,46.32
2023-05-25T18:16:04.437Z,46.26
2023-05-25T18:18:32.184Z,45.76
2023-05-25T18:21:00.111Z,47.07
2023-05-25T18:23:29.225Z,45.97
2023-05-25T18:25:56.979Z,46.01
2023-05-25T18:28:24.712Z,45.45
2023-05-25T18:30:52.583Z,45.24
2023-05-25T18:33:20.615Z,45.48
2023-05-25T18:35:48.631Z,46.01
2023-05-25T18:38:16.372Z,45.34
2023-05-25T18:40:45.484Z,45.53
2023-05-25T18:43:13.242Z,46.14
2023-05-25T18:45:41.004Z,46.47
2023-05-25T18:48:08.993Z,46.38
2023-05-25T18:50:39.089Z,46.45
2023-05-25T18:53:09.766Z,46.21
2023-05-25T18:55:37.726Z,46.30
2023-05-25T18:58:07.208Z,46.15
2023-05-25T19:00:35.322Z,46.50
2023-05-25T19:03:03.265Z,46.33
2023-05-25T19:05:31.201Z,46.22
2023-05-25T19:07:59.993Z,46.31
2023-05-25T19:10:28.423Z,46.63
2023-05-25T19:12:56.392Z,46.74
2023-05-25T19:15:25.587Z,46.88
2023-05-25T19:17:53.420Z,46.80
2023-05-25T19:20:21.221Z,46.94
2023-05-25T19:22:49.038Z,47.13
2023-05-25T19:25:16.805Z,47.14
2023-05-25T19:27:44.545Z,47.35
2023-05-25T19:30:12.921Z,47.08
2023-05-25T19:32:42.109Z,47.26
2023-05-25T19:35:10.587Z,47.32
2023-05-25T19:37:40.773Z,47.58
2023-05-25T19:40:10.947Z,47.31
2023-05-25T19:42:38.796Z,47.39
2023-05-25T19:45:07.284Z,47.58
2023-05-25T19:47:35.120Z,47.60
2023-05-25T19:50:04.500Z,47.73
2023-05-25T19:52:32.320Z,47.71
2023-05-25T19:55:00.104Z,47.84
2023-05-25T19:57:27.904Z,47.69
2023-05-25T19:59:55.694Z,47.76
2023-05-25T20:02:23.588Z,47.85
2023-05-25T20:04:51.702Z,47.88
2023-05-25T20:07:20.817Z,47.92
2023-05-25T20:09:48.552Z,48.00
2023-05-25T20:12:16.687Z,47.90
2023-05-25T20:14:44.614Z,48.08
2023-05-25T20:17:12.420Z,47.95
2023-05-25T20:19:40.175Z,48.09
2023-05-25T20:22:08.320Z,48.26
2023-05-25T20:24:37.506Z,48.21
2023-05-25T20:27:06.087Z,48.32
2023-05-25T20:29:34.942Z,48.19
2023-05-25T20:32:02.856Z,48.21
2023-05-25T20:34:30.617Z,48.37
2023-05-25T20:36:58.351Z,48.32
2023-05-25T20:39:26.127Z,48.37
2023-05-25T20:41:55.248Z,48.34
2023-05-25T20:44:23.012Z,48.43
2023-05-25T20:46:50.839Z,48.37
2023-05-25T20:49:18.577Z,48.42
2023-05-25T20:51:49.974Z,48.34
2023-05-25T20:54:17.880Z,48.62
2023-05-25T20:56:46.483Z,48.48
2023-05-25T20:59:15.647Z,48.12
2023-05-25T21:01:44.175Z,48.08
2023-05-25T21:04:12.100Z,47.83
2023-05-25T21:06:40.054Z,47.86
2023-05-25T21:09:07.891Z,48.04
2023-05-25T21:11:36.019Z,47.90
2023-05-25T21:14:03.828Z,47.92
2023-05-25T21:16:32.936Z,47.40
2023-05-25T21:19:00.776Z,47.70
2023-05-25T21:21:29.092Z,47.48
2023-05-25T21:23:56.855Z,47.58
2023-05-25T21:26:24.640Z,47.41
2023-05-25T21:28:52.372Z,47.32
2023-05-25T21:31:20.773Z,47.34
2023-05-25T21:33:50.044Z,47.38
2023-05-25T21:36:18.269Z,47.42
2023-05-25T21:38:46.084Z,47.43
2023-05-25T21:41:13.850Z,47.38
2023-05-25T21:43:41.606Z,47.41
2023-05-25T21:46:09.357Z,47.58
2023-05-25T21:48:37.100Z,47.53
2023-05-25T21:51:06.403Z,47.41
2023-05-25T21:53:34.179Z,47.43
2023-05-25T21:56:01.905Z,47.29
2023-05-25T21:58:29.631Z,47.30
2023-05-25T22:00:57.442Z,47.48
2023-05-25T22:03:25.254Z,47.58
2023-05-25T22:05:53.037Z,47.43
2023-05-25T22:08:22.180Z,47.50
2023-05-25T22:10:50.047Z,47.40
2023-05-25T22:13:18.195Z,47.47
2023-05-25T22:15:46.568Z,47.45
2023-05-25T22:18:14.542Z,47.34
2023-05-25T22:20:42.479Z,47.38
2023-05-25T22:23:12.905Z,47.56
2023-05-25T22:25:42.492Z,47.44
2023-05-25T22:28:10.332Z,47.45
2023-05-25T22:30:38.086Z,47.45
2023-05-25T22:33:05.918Z,47.51
2023-05-25T22:35:33.701Z,47.40
2023-05-25T22:38:01.414Z,47.35
2023-05-25T22:40:29.157Z,47.23
2023-05-25T22:42:58.265Z,47.36
2023-05-25T22:45:26.070Z,47.52
2023-05-25T22:47:53.833Z,47.39
2023-05-25T22:50:21.673Z,47.44
2023-05-25T22:52:49.448Z,47.37
2023-05-25T22:55:17.193Z,47.25
2023-05-25T22:57:44.949Z,47.36
2023-05-25T23:00:14.714Z,47.36
2023-05-25T23:02:42.528Z,47.38
2023-05-25T23:05:11.990Z,47.42
2023-05-25T23:07:39.768Z,47.37
2023-05-25T23:10:08.763Z,47.41
2023-05-25T23:12:36.537Z,47.33
2023-05-25T23:15:06.956Z,47.59
2023-05-25T23:17:36.193Z,47.39
2023-05-25T23:20:07.469Z,47.47
2023-05-25T23:22:35.250Z,47.48
2023-05-25T23:25:03.085Z,47.48
2023-05-25T23:27:30.876Z,47.37
2023-05-25T23:29:58.636Z,47.40
2023-05-25T23:32:26.420Z,47.34
2023-05-25T23:34:56.829Z,47.50
2023-05-25T23:37:24.589Z,47.54
2023-05-25T23:39:52.355Z,47.53
2023-05-25T23:42:20.126Z,47.52
2023-05-25T23:44:47.974Z,47.42
2023-05-25T23:47:15.810Z,47.40
2023-05-25T23:49:43.524Z,47.65
2023-05-25T23:52:12.633Z,47.90
2023-05-25T23:54:40.359Z,47.47
2023-05-25T23:57:08.100Z,47.53
2023-05-25T23:59:35.845Z,47.43
